Terminal Aerodrome Forecast
Issued by NWS

Current Version | Previous Version | Graphics & Text | Print | Product List | Glossary On
Versions: 1 2 3 4 5 6 7 8 9 10 11 12 13 14 15 16 17 18 19 20 21 22 23 24
000
FTUS41 KILN 261130
TAFLUK
TAF
KLUK 261130Z 2612/2712 26008KT P6SM VCSH SCT050 BKN120
     FM261400 26012G18KT P6SM -SHRA SCT028 BKN035
      TEMPO 2614/2617 5SM -SHRA BKN025
     FM261700 27010G18KT P6SM BKN028
     FM262000 27010KT P6SM SKC
     FM270000 23004KT P6SM SKC=

USA.gov is the U.S. government's official web portal to all federal, state and local government web resources and services.